Time;durP1;ratioP1;P1;durP2;ratioP2;P2;SDS_P1;SDS_P2;PMS_P1;PMS_P2;Temp;Humidity;BMP_temperature;BMP_pressure;BME280_temperature;BME280_humidity;BME280_pressure;Samples;Min_cycle;Max_cycle;Signal;HPM_P1;HPM_P2
2022/09/18 00:02:17;;;;;;;;;;;;;;;12.66;100.00;97709.62;1665844;86;20248;-72
2022/09/18 00:04:43;;;;;;;;;;;;;;;12.65;100.00;97700.96;1665771;86;21235;-72
2022/09/18 00:07:09;;;;;;;;;;;;;;;12.66;100.00;97700.48;1665743;86;20150;-72
2022/09/18 00:09:36;;;;;;;;;;;;;;;12.67;100.00;97704.75;1665696;86;20158;-72
2022/09/18 00:12:02;;;;;;;;;;;;;;;12.66;100.00;97692.66;1646297;86;20171;-73
2022/09/18 00:14:29;;;;;;;;;;;;;;;12.65;100.00;97687.92;1665897;86;20146;-72
2022/09/18 00:16:55;;;;;;;;;;;;;;;12.64;100.00;97677.13;1665720;86;21153;-72
2022/09/18 00:19:21;;;;;;;;;;;;;;;12.63;100.00;97672.86;1665828;86;20414;-72
2022/09/18 00:21:49;;;;;;;;;;;;;;;12.64;100.00;97668.47;1665790;86;20142;-72
2022/09/18 00:24:21;;;;;;;;;;;;;;;12.63;100.00;97667.64;1665703;86;20174;-72
2022/09/18 00:26:45;;;;;;;;;;;;;;;12.63;100.00;97665.52;1665302;86;20154;-73
2022/09/18 00:29:12;;;;;;;;;;;;;;;12.63;100.00;97672.03;1665619;86;22056;-71
2022/09/18 00:31:38;;;;;;;;;;;;;;;12.64;100.00;97668.00;1665852;86;20411;-72
2022/09/18 00:34:07;;;;;;;;;;;;;;;12.66;100.00;97675.23;1665796;86;20155;-72
2022/09/18 00:36:34;;;;;;;;;;;;;;;12.69;100.00;97675.47;1665716;86;20489;-71
2022/09/18 00:39:02;;;;;;;;;;;;;;;12.70;100.00;97671.92;1665817;85;20231;-71
2022/09/18 00:41:34;;;;;;;;;;;;;;;12.71;100.00;97665.75;1665666;86;22059;-71
2022/09/18 00:44:30;;;;;;;;;;;;;;;12.72;100.00;97659.11;1664935;86;20146;-71
2022/09/18 00:47:08;;;;;;;;;;;;;;;12.73;100.00;97644.30;1665805;86;20142;-71
2022/09/18 00:49:43;;;;;;;;;;;;;;;12.72;100.00;97645.23;1665427;86;20410;-72
2022/09/18 00:52:10;;;;;;;;;;;;;;;12.73;100.00;97642.52;1665840;86;20149;-72
2022/09/18 00:54:39;;;;;;;;;;;;;;;12.73;100.00;97640.38;1665687;86;21151;-72
2022/09/18 00:57:09;;;;;;;;;;;;;;;12.73;100.00;97640.38;1665651;86;21238;-72
2022/09/18 00:59:36;;;;;;;;;;;;;;;12.74;100.00;97631.61;1665890;86;20442;-72
2022/09/18 01:02:02;;;;;;;;;;;;;;;12.76;100.00;97628.40;1665737;86;20179;-72
2022/09/18 01:04:29;;;;;;;;;;;;;;;12.75;100.00;97632.79;1665665;86;20158;-72
2022/09/18 01:07:28;;;;;;;;;;;;;;;12.76;100.00;97620.58;1665664;86;21164;-72
2022/09/18 01:10:10;;;;;;;;;;;;;;;12.74;100.00;97606.83;1665640;86;20446;-72
2022/09/18 01:12:43;;;;;;;;;;;;;;;12.73;100.00;97597.34;1637909;86;20146;-72
2022/09/18 01:15:17;;;;;;;;;;;;;;;12.73;100.00;97595.56;1665813;86;20178;-72
2022/09/18 01:18:06;;;;;;;;;;;;;;;12.70;100.00;97591.89;1665783;86;20184;-71
2022/09/18 01:20:58;;;;;;;;;;;;;;;12.69;100.00;97593.31;1665416;86;21089;-72
2022/09/18 01:23:34;;;;;;;;;;;;;;;12.68;100.00;97592.48;1665732;86;20449;-72
2022/09/18 01:26:21;;;;;;;;;;;;;;;12.66;100.00;97594.85;1666061;86;20162;-72
2022/09/18 01:28:59;;;;;;;;;;;;;;;12.67;100.00;97592.59;1665821;86;20150;-72
2022/09/18 01:31:28;;;;;;;;;;;;;;;12.67;100.00;97589.52;1665826;85;20150;-72
2022/09/18 01:34:09;;;;;;;;;;;;;;;12.68;100.00;97584.66;1665691;86;21097;-72
2022/09/18 01:36:37;;;;;;;;;;;;;;;12.69;100.00;97578.97;1665700;86;20137;-72
2022/09/18 01:39:17;;;;;;;;;;;;;;;12.70;100.00;97574.94;1665643;86;20317;-72
2022/09/18 01:41:50;;;;;;;;;;;;;;;12.71;100.00;97558.33;1664338;86;20185;-71
2022/09/18 01:44:13;;;;;;;;;;;;;;;12.72;100.00;97551.34;1665069;86;20438;-71
2022/09/18 01:46:41;;;;;;;;;;;;;;;12.71;100.00;97553.59;1665705;86;21067;-71
2022/09/18 01:49:11;;;;;;;;;;;;;;;12.71;100.00;97548.38;1665613;86;20142;-71
2022/09/18 01:51:45;;;;;;;;;;;;;;;12.70;100.00;97546.23;1665311;86;20265;-72
2022/09/18 01:54:15;;;;;;;;;;;;;;;12.70;100.00;97548.02;1662699;86;20102;-72
2022/09/18 01:56:46;;;;;;;;;;;;;;;12.69;100.00;97539.84;1665692;86;20431;-72
2022/09/18 01:59:16;;;;;;;;;;;;;;;12.67;100.00;97533.91;1665847;86;21277;-71
2022/09/18 02:01:50;;;;;;;;;;;;;;;12.65;100.00;97530.60;1665258;86;20150;-71
2022/09/18 02:04:20;;;;;;;;;;;;;;;12.63;100.00;97526.81;1665738;86;20159;-72
2022/09/18 02:07:02;;;;;;;;;;;;;;;12.63;100.00;97518.16;1665672;86;20586;-72
2022/09/18 02:09:28;;;;;;;;;;;;;;;12.62;100.00;97525.15;1628921;86;20541;-71
2022/09/18 02:11:55;;;;;;;;;;;;;;;12.62;100.00;97515.19;1665887;86;20541;-71
2022/09/18 02:14:27;;;;;;;;;;;;;;;12.60;100.00;97506.66;1665779;86;20146;-71
2022/09/18 02:19:58;;;;;;;;;;;;;;;12.59;100.00;97501.13;1665669;86;20691;-72
2022/09/18 02:22:26;;;;;;;;;;;;;;;12.60;100.00;97495.75;1665651;86;20151;-72
2022/09/18 02:24:54;;;;;;;;;;;;;;;12.59;100.00;97494.09;1665630;86;21138;-72
2022/09/18 02:27:21;;;;;;;;;;;;;;;12.57;100.00;97486.91;1665669;86;20171;-72
2022/09/18 02:29:47;;;;;;;;;;;;;;;12.56;100.00;97481.81;1655730;85;20467;-72
2022/09/18 02:32:13;;;;;;;;;;;;;;;12.54;100.00;97480.63;1654152;86;20223;-72
2022/09/18 02:34:40;;;;;;;;;;;;;;;12.54;100.00;97479.32;1654370;86;20174;-72
2022/09/18 02:37:27;;;;;;;;;;;;;;;12.54;100.00;97471.50;1634147;87;21136;-71
2022/09/18 02:40:32;;;;;;;;;;;;;;;12.55;100.00;97482.77;1635194;87;20198;-71
2022/09/18 02:43:27;;;;;;;;;;;;;;;12.54;100.00;97474.11;1654403;87;20199;-71
2022/09/18 02:46:00;;;;;;;;;;;;;;;12.57;100.00;97471.73;1628603;87;20490;-71
2022/09/18 02:48:49;;;;;;;;;;;;;;;12.58;100.00;97470.78;1625134;88;20471;-71
2022/09/18 02:51:44;;;;;;;;;;;;;;;12.59;100.00;97459.40;1643728;86;22015;-71
2022/09/18 02:54:13;;;;;;;;;;;;;;;12.60;100.00;97454.50;1653282;87;20240;-71
2022/09/18 02:56:49;;;;;;;;;;;;;;;12.63;100.00;97452.95;1654266;87;20490;-72
2022/09/18 02:59:22;;;;;;;;;;;;;;;12.65;100.00;97445.84;1654261;87;20170;-71
2022/09/18 03:01:50;;;;;;;;;;;;;;;12.64;100.00;97442.40;1654370;86;20432;-71
2022/09/18 03:04:20;;;;;;;;;;;;;;;12.64;100.00;97420.23;1635576;87;21168;-71
2022/09/18 03:06:57;;;;;;;;;;;;;;;12.64;100.00;97418.10;1634815;86;20203;-72
2022/09/18 03:09:24;;;;;;;;;;;;;;;12.62;100.00;97410.41;1654290;87;20215;-73
2022/09/18 03:11:52;;;;;;;;;;;;;;;12.61;100.00;97400.09;1654311;87;20186;-72
2022/09/18 03:14:19;;;;;;;;;;;;;;;12.59;100.00;97398.12;1654428;86;20466;-72
2022/09/18 03:16:45;;;;;;;;;;;;;;;12.59;100.00;97400.22;1654314;86;21240;-72
2022/09/18 03:19:13;;;;;;;;;;;;;;;12.60;100.00;97391.92;1654190;87;20167;-72
2022/09/18 03:21:42;;;;;;;;;;;;;;;12.60;100.00;97386.70;1654215;87;20183;-73
2022/09/18 03:24:11;;;;;;;;;;;;;;;12.61;100.00;97385.27;1654304;87;20170;-72
2022/09/18 03:26:39;;;;;;;;;;;;;;;12.62;100.00;97375.19;1654332;86;20171;-72
2022/09/18 03:29:09;;;;;;;;;;;;;;;12.62;100.00;97367.84;1654146;85;21159;-72
2022/09/18 03:31:37;;;;;;;;;;;;;;;12.61;100.00;97355.77;1654143;86;20178;-72
2022/09/18 03:34:05;;;;;;;;;;;;;;;12.60;100.00;97352.33;1654286;86;20215;-72
2022/09/18 03:36:32;;;;;;;;;;;;;;;12.61;100.00;97350.55;1654270;86;20254;-73
2022/09/18 03:38:59;;;;;;;;;;;;;;;12.61;100.00;97344.02;1654221;87;20187;-72
2022/09/18 03:41:25;;;;;;;;;;;;;;;12.63;100.00;97349.94;1654362;87;22031;-72
2022/09/18 03:43:53;;;;;;;;;;;;;;;12.63;100.00;97351.25;1635338;87;20245;-72
2022/09/18 03:46:24;;;;;;;;;;;;;;;12.64;100.00;97343.30;1654230;87;20171;-72
2022/09/18 03:48:49;;;;;;;;;;;;;;;12.65;100.00;97348.03;1653972;86;20167;-73
2022/09/18 03:51:18;;;;;;;;;;;;;;;12.65;100.00;97346.25;1654373;87;20463;-72
2022/09/18 03:53:45;;;;;;;;;;;;;;;12.68;100.00;97337.35;1654254;86;21295;-72
2022/09/18 03:56:29;;;;;;;;;;;;;;;12.73;100.00;97340.41;1654345;87;20491;-72
2022/09/18 03:59:00;;;;;;;;;;;;;;;12.74;100.00;97340.28;1650863;87;20171;-72
2022/09/18 04:01:31;;;;;;;;;;;;;;;12.78;100.00;97340.86;1636613;86;20179;-72
2022/09/18 04:04:15;;;;;;;;;;;;;;;12.80;100.00;97348.53;1654352;86;20467;-72
2022/09/18 04:06:47;;;;;;;;;;;;;;;12.81;100.00;97342.36;1651924;86;20812;-72
2022/09/18 04:09:18;;;;;;;;;;;;;;;12.81;100.00;97339.75;1651232;87;20179;-72
2022/09/18 04:11:49;;;;;;;;;;;;;;;12.81;100.00;97334.05;1654255;86;20467;-73
2022/09/18 04:14:16;;;;;;;;;;;;;;;12.85;100.00;97329.41;1654646;87;20179;-72
2022/09/18 04:16:43;;;;;;;;;;;;;;;12.86;100.00;97333.67;1635319;87;20191;-72
2022/09/18 04:19:09;;;;;;;;;;;;;;;12.86;100.00;97321.45;1654272;87;21214;-72
2022/09/18 04:21:37;;;;;;;;;;;;;;;12.88;100.00;97320.85;1654208;86;20183;-72
2022/09/18 04:24:05;;;;;;;;;;;;;;;12.89;100.00;97323.81;1654180;86;20262;-72
2022/09/18 04:26:33;;;;;;;;;;;;;;;12.90;100.00;97328.07;1654144;87;20261;-72
2022/09/18 04:29:00;;;;;;;;;;;;;;;12.89;100.00;97334.24;1654411;86;20175;-72
2022/09/18 04:31:26;;;;;;;;;;;;;;;12.88;100.00;97335.20;1654560;86;21108;-72
2022/09/18 04:33:53;;;;;;;;;;;;;;;12.88;100.00;97341.72;1654120;86;20191;-72
2022/09/18 04:36:21;;;;;;;;;;;;;;;12.89;100.00;97336.03;1654420;87;20204;-72
2022/09/18 04:38:48;;;;;;;;;;;;;;;12.91;100.00;97335.42;1654238;87;20183;-72
2022/09/18 04:41:14;;;;;;;;;;;;;;;12.94;100.00;97329.47;1654177;87;20172;-72
2022/09/18 04:43:42;;;;;;;;;;;;;;;12.95;100.00;97325.91;1654175;86;21245;-72
2022/09/18 04:46:08;;;;;;;;;;;;;;;12.97;100.00;97337.52;1654168;86;20175;-72
2022/09/18 04:48:36;;;;;;;;;;;;;;;12.94;100.00;97337.30;1654162;87;20192;-72
2022/09/18 04:51:04;;;;;;;;;;;;;;;12.93;100.00;97337.42;1635255;87;20474;-72
2022/09/18 04:53:34;;;;;;;;;;;;;;;12.93;100.00;97322.59;1652833;86;20187;-72
2022/09/18 04:56:01;;;;;;;;;;;;;;;12.94;100.00;97306.47;1654645;86;21150;-71
2022/09/18 04:58:30;;;;;;;;;;;;;;;12.94;100.00;97295.55;1654046;86;20167;-72
2022/09/18 05:00:58;;;;;;;;;;;;;;;12.93;100.00;97285.24;1654267;86;20206;-72
2022/09/18 05:03:24;;;;;;;;;;;;;;;12.92;100.00;97292.25;1654153;87;20525;-72
2022/09/18 05:05:53;;;;;;;;;;;;;;;12.92;100.00;97291.42;1654125;87;20190;-72
2022/09/18 05:08:21;;;;;;;;;;;;;;;12.93;100.00;97286.07;1654374;86;21980;-72
2022/09/18 05:10:47;;;;;;;;;;;;;;;12.93;100.00;97282.63;1654088;87;20474;-73
2022/09/18 05:13:14;;;;;;;;;;;;;;;12.95;100.00;97281.55;1654147;86;20226;-72
2022/09/18 05:15:42;;;;;;;;;;;;;;;12.99;100.00;97277.70;1653403;86;20467;-72
2022/09/18 05:18:09;;;;;;;;;;;;;;;13.01;100.00;97269.26;1654163;87;20500;-72
2022/09/18 05:20:35;;;;;;;;;;;;;;;13.04;100.00;97266.39;1654211;87;21093;-72
2022/09/18 05:23:04;;;;;;;;;;;;;;;13.08;100.00;97269.09;1654214;86;20266;-73
2022/09/18 05:25:31;;;;;;;;;;;;;;;13.09;100.00;97260.30;1635217;87;20107;-73
2022/09/18 05:27:59;;;;;;;;;;;;;;;13.11;100.00;97257.08;1654388;87;20490;-73
2022/09/18 05:30:28;;;;;;;;;;;;;;;13.11;100.00;97253.65;1671440;85;20137;-72
2022/09/18 05:32:58;;;;;;;;;;;;;;;13.14;100.00;97256.00;1677107;85;21825;-72
2022/09/18 05:35:27;;;;;;;;;;;;;;;13.17;100.00;97253.16;1653588;85;38723;-72
2022/09/18 05:37:54;;;;;;;;;;;;;;;13.19;100.00;97248.59;1677048;85;20181;-72
2022/09/18 05:40:24;;;;;;;;;;;;;;;13.22;100.00;97260.56;1677029;85;20735;-71
2022/09/18 05:42:53;;;;;;;;;;;;;;;13.21;100.00;97257.13;1677126;85;20137;-71
2022/09/18 05:45:20;;;;;;;;;;;;;;;13.23;100.00;97258.30;1677222;85;21801;-71
2022/09/18 05:48:01;;;;;;;;;;;;;;;13.26;100.00;97251.52;1677061;85;20146;-71
2022/09/18 05:50:29;;;;;;;;;;;;;;;13.28;100.00;97250.42;1677132;85;20166;-71
2022/09/18 05:53:09;;;;;;;;;;;;;;;13.33;100.00;97234.36;1677078;85;20086;-71
2022/09/18 05:55:38;;;;;;;;;;;;;;;13.36;100.00;97233.62;1676424;85;20173;-72
2022/09/18 05:58:06;;;;;;;;;;;;;;;13.39;100.00;97243.77;1677025;85;21170;-72
2022/09/18 06:00:34;;;;;;;;;;;;;;;13.43;100.00;97238.62;1677100;85;20146;-71
2022/09/18 06:03:03;;;;;;;;;;;;;;;13.45;100.00;97244.53;1677022;84;20448;-72
2022/09/18 06:05:33;;;;;;;;;;;;;;;13.48;100.00;97238.70;1677003;85;20162;-71
2022/09/18 06:08:00;;;;;;;;;;;;;;;13.50;100.00;97234.17;1677157;85;20149;-71
2022/09/18 06:10:31;;;;;;;;;;;;;;;13.51;100.00;97226.20;1677021;85;20097;-71
2022/09/18 06:13:03;;;;;;;;;;;;;;;13.56;100.00;97204.91;1676982;85;20149;-71
2022/09/18 06:15:30;;;;;;;;;;;;;;;13.60;100.00;97197.12;1653782;85;20150;-72
2022/09/18 06:17:56;;;;;;;;;;;;;;;13.63;100.00;97187.23;1677127;85;20378;-72
2022/09/18 06:20:23;;;;;;;;;;;;;;;13.68;100.00;97182.90;1677290;85;20118;-72
2022/09/18 06:22:49;;;;;;;;;;;;;;;13.72;100.00;97188.20;1677347;85;21106;-74
2022/09/18 06:25:20;;;;;;;;;;;;;;;13.76;100.00;97181.73;1676825;85;20181;-72
2022/09/18 06:27:47;;;;;;;;;;;;;;;13.81;100.00;97167.75;1677074;85;20169;-73
2022/09/18 06:30:14;;;;;;;;;;;;;;;13.89;100.00;97170.98;1670775;85;20137;-72
2022/09/18 06:32:40;;;;;;;;;;;;;;;13.95;100.00;97186.11;1665607;86;20174;-72
2022/09/18 06:35:08;;;;;;;;;;;;;;;14.01;100.00;97185.53;1665665;86;21100;-72
2022/09/18 06:37:36;;;;;;;;;;;;;;;14.04;100.00;97186.56;1665607;86;20182;-72
2022/09/18 06:40:05;;;;;;;;;;;;;;;14.06;100.00;97206.85;1665062;86;20442;-72
2022/09/18 06:42:33;;;;;;;;;;;;;;;14.09;100.00;97202.66;1663673;86;20146;-72
2022/09/18 06:45:02;;;;;;;;;;;;;;;14.10;100.00;97199.91;1663836;86;20131;-72
2022/09/18 06:47:29;;;;;;;;;;;;;;;14.16;100.00;97201.63;1665584;86;21253;-73
2022/09/18 06:49:55;;;;;;;;;;;;;;;14.22;100.00;97194.50;1665690;86;20174;-72
2022/09/18 06:52:22;;;;;;;;;;;;;;;14.28;100.00;97189.54;1665609;86;20201;-72
2022/09/18 06:54:48;;;;;;;;;;;;;;;14.36;100.00;97187.53;1665696;86;20147;-72
2022/09/18 06:57:16;;;;;;;;;;;;;;;14.44;100.00;97187.17;1663864;86;20442;-72
2022/09/18 06:59:44;;;;;;;;;;;;;;;14.52;100.00;97181.72;1665595;86;21150;-72
2022/09/18 07:02:17;;;;;;;;;;;;;;;14.58;100.00;97183.77;1665650;86;20153;-73
2022/09/18 07:04:45;;;;;;;;;;;;;;;14.61;100.00;97191.30;1662898;86;20154;-72
2022/09/18 07:07:12;;;;;;;;;;;;;;;14.66;100.00;97191.23;1665870;86;20139;-72
2022/09/18 07:09:39;;;;;;;;;;;;;;;14.71;100.00;97189.48;1665618;86;20142;-72
2022/09/18 07:12:13;;;;;;;;;;;;;;;14.79;100.00;97177.80;1664478;86;21895;-72
2022/09/18 07:14:42;;;;;;;;;;;;;;;14.88;100.00;97176.11;1665363;86;20172;-72
2022/09/18 07:17:10;;;;;;;;;;;;;;;14.95;100.00;97175.88;1637175;87;20092;-73
2022/09/18 07:19:37;;;;;;;;;;;;;;;15.02;100.00;97175.13;1665735;86;20178;-72
2022/09/18 07:22:04;;;;;;;;;;;;;;;15.06;100.00;97171.25;1665748;86;20173;-72
2022/09/18 07:24:33;;;;;;;;;;;;;;;15.07;100.00;97161.12;1665346;86;21257;-71
2022/09/18 07:26:59;;;;;;;;;;;;;;;15.06;100.00;97162.09;1665630;86;20446;-71
2022/09/18 07:29:25;;;;;;;;;;;;;;;15.04;100.00;97156.17;1666687;85;20170;-72
2022/09/18 07:31:53;;;;;;;;;;;;;;;15.01;100.00;97158.25;1677080;85;20134;-73
2022/09/18 07:34:19;;;;;;;;;;;;;;;14.99;100.00;97157.09;1677236;85;20154;-71
2022/09/18 07:36:49;;;;;;;;;;;;;;;15.00;100.00;97159.22;1653962;85;21779;-70
2022/09/18 07:39:15;;;;;;;;;;;;;;;15.02;100.00;97159.42;1677091;85;20158;-71
2022/09/18 07:41:44;;;;;;;;;;;;;;;15.06;100.00;97152.09;1656087;85;20150;-71
2022/09/18 07:44:11;;;;;;;;;;;;;;;15.06;100.00;97156.02;1677104;85;20126;-71
2022/09/18 07:46:37;;;;;;;;;;;;;;;15.09;100.00;97150.50;1677179;85;20142;-71
2022/09/18 07:49:04;;;;;;;;;;;;;;;15.12;100.00;97143.17;1677295;85;21795;-72
2022/09/18 07:51:30;;;;;;;;;;;;;;;15.20;100.00;97137.66;1677148;85;20224;-71
2022/09/18 07:53:58;;;;;;;;;;;;;;;15.29;100.00;97125.83;1677294;85;20441;-71
2022/09/18 07:56:32;;;;;;;;;;;;;;;15.39;100.00;97122.63;1671340;85;20142;-71
2022/09/18 07:58:59;;;;;;;;;;;;;;;15.56;100.00;97120.20;1677198;85;20147;-72
2022/09/18 08:01:26;;;;;;;;;;;;;;;15.74;100.00;97115.75;1677171;85;21163;-72
2022/09/18 08:03:54;;;;;;;;;;;;;;;15.95;100.00;97099.19;1677223;85;20468;-72
2022/09/18 08:06:23;;;;;;;;;;;;;;;16.16;100.00;97083.91;1673545;85;20178;-72
2022/09/18 08:08:51;;;;;;;;;;;;;;;16.38;100.00;97089.09;1672616;84;20170;-72
2022/09/18 08:11:25;;;;;;;;;;;;;;;16.59;100.00;97089.14;1675349;85;20197;-73
2022/09/18 08:13:56;;;;;;;;;;;;;;;16.79;100.00;97080.05;1673566;85;21184;-73
2022/09/18 08:16:30;;;;;;;;;;;;;;;16.97;100.00;97075.52;1675665;85;20174;-72
2022/09/18 08:19:01;;;;;;;;;;;;;;;17.07;100.00;97080.60;1676045;85;20170;-72
2022/09/18 08:21:30;;;;;;;;;;;;;;;17.12;100.00;97071.75;1675669;85;20170;-72
2022/09/18 08:23:57;;;;;;;;;;;;;;;17.13;100.00;97067.66;1677176;85;20173;-72
2022/09/18 08:26:23;;;;;;;;;;;;;;;17.13;100.00;97072.09;1677141;85;21336;-72
2022/09/18 08:28:51;;;;;;;;;;;;;;;17.11;100.00;97064.37;1677082;85;20163;-72
2022/09/18 08:31:18;;;;;;;;;;;;;;;17.09;100.00;97069.45;1676948;85;20166;-73
2022/09/18 08:33:44;;;;;;;;;;;;;;;17.11;100.00;97068.80;1677160;85;20242;-73
2022/09/18 08:36:11;;;;;;;;;;;;;;;17.15;100.00;97067.49;1677277;85;20429;-72
2022/09/18 08:38:39;;;;;;;;;;;;;;;17.21;100.00;97068.13;1676649;85;21376;-73
2022/09/18 08:41:52;;;;;;;;;;;;;;;17.22;100.00;97068.47;1677053;85;20523;-73
2022/09/18 08:44:23;;;;;;;;;;;;;;;17.15;100.00;97065.69;1677095;85;20141;-72
2022/09/18 08:46:54;;;;;;;;;;;;;;;17.07;100.00;97063.05;1677039;85;20142;-72
2022/09/18 08:49:44;;;;;;;;;;;;;;;17.02;100.00;97062.70;1653742;85;20152;-72
2022/09/18 08:52:23;;;;;;;;;;;;;;;16.99;100.00;97062.20;1677112;85;21974;-71
2022/09/18 08:55:07;;;;;;;;;;;;;;;16.93;100.00;97063.69;1675788;85;20150;-71
2022/09/18 08:57:50;;;;;;;;;;;;;;;16.92;100.00;97055.97;1675975;85;20446;-72
2022/09/18 09:00:28;;;;;;;;;;;;;;;16.87;100.00;97055.95;1675704;85;20133;-72
2022/09/18 09:03:22;;;;;;;;;;;;;;;16.82;100.00;97051.67;1675955;85;20440;-72
2022/09/18 09:05:56;;;;;;;;;;;;;;;16.82;100.00;97054.78;1677092;85;21078;-73
2022/09/18 09:08:49;;;;;;;;;;;;;;;16.83;100.00;97049.38;1661464;85;20145;-73
2022/09/18 09:11:32;;;;;;;;;;;;;;;16.82;100.00;97054.78;1677069;85;20138;-73
2022/09/18 09:14:17;;;;;;;;;;;;;;;16.77;100.00;97053.98;1677110;85;20177;-72
2022/09/18 09:16:46;;;;;;;;;;;;;;;16.76;100.00;97047.58;1677208;85;20179;-72
2022/09/18 09:19:30;;;;;;;;;;;;;;;16.75;100.00;97044.13;1676970;85;21191;-73
2022/09/18 09:21:59;;;;;;;;;;;;;;;16.76;100.00;97046.27;1677107;85;20150;-72
2022/09/18 09:24:35;;;;;;;;;;;;;;;16.80;100.00;97053.63;1677070;84;20153;-73
2022/09/18 09:27:19;;;;;;;;;;;;;;;16.82;100.00;97051.67;1677135;85;20142;-71
2022/09/18 09:30:10;;;;;;;;;;;;;;;16.84;100.00;97052.34;1675641;85;20169;-72
2022/09/18 09:32:41;;;;;;;;;;;;;;;16.87;100.00;97058.58;1665269;86;21251;-71
2022/09/18 09:35:31;;;;;;;;;;;;;;;16.88;100.00;97058.09;1663320;86;20170;-72
2022/09/18 09:38:14;;;;;;;;;;;;;;;16.87;100.00;97061.70;1665371;86;20189;-72
2022/09/18 09:40:43;;;;;;;;;;;;;;;16.85;100.00;97055.78;1662641;86;20546;-72
2022/09/18 09:43:29;;;;;;;;;;;;;;;16.94;100.00;97047.44;1665754;86;20094;-73
2022/09/18 09:45:58;;;;;;;;;;;;;;;17.12;100.00;97047.62;1665810;86;21777;-73
2022/09/18 09:48:29;;;;;;;;;;;;;;;17.39;100.00;97049.09;1665677;86;20138;-72
2022/09/18 09:51:08;;;;;;;;;;;;;;;17.68;100.00;97050.42;1665645;86;20142;-72
2022/09/18 09:53:35;;;;;;;;;;;;;;;17.99;100.00;97059.22;1653558;86;20517;-72
2022/09/18 09:56:11;;;;;;;;;;;;;;;18.32;100.00;97050.74;1666143;86;20241;-72
2022/09/18 09:58:57;;;;;;;;;;;;;;;18.53;100.00;97048.84;1665927;86;20723;-72
2022/09/18 10:01:26;;;;;;;;;;;;;;;18.62;100.00;97041.24;1665688;86;20142;-73
2022/09/18 10:04:17;;;;;;;;;;;;;;;18.72;100.00;97047.12;1665605;86;20159;-73
2022/09/18 10:06:50;;;;;;;;;;;;;;;18.84;100.00;97050.99;1665647;86;20706;-72
2022/09/18 10:09:39;;;;;;;;;;;;;;;18.93;100.00;97035.97;1666081;86;20150;-72
2022/09/18 10:12:15;;;;;;;;;;;;;;;18.98;100.00;97036.27;1665700;86;21171;-73
2022/09/18 10:14:45;;;;;;;;;;;;;;;19.05;100.00;97044.28;1665662;86;20200;-72
2022/09/18 10:17:13;;;;;;;;;;;;;;;19.20;99.64;97045.15;1665619;86;20110;-72
2022/09/18 10:19:41;;;;;;;;;;;;;;;19.28;99.03;97052.50;1665607;86;20146;-72
2022/09/18 10:22:10;;;;;;;;;;;;;;;19.33;97.70;97055.11;1646257;86;20168;-72
2022/09/18 10:24:59;;;;;;;;;;;;;;;19.32;96.16;97050.84;1665861;86;21103;-73
2022/09/18 10:27:26;;;;;;;;;;;;;;;19.32;95.43;97056.93;1665564;86;20150;-72
2022/09/18 10:29:53;;;;;;;;;;;;;;;19.37;94.77;97049.32;1665779;86;20154;-73
2022/09/18 10:32:36;;;;;;;;;;;;;;;19.46;94.37;97047.42;1675526;85;20173;-73
2022/09/18 10:35:25;;;;;;;;;;;;;;;19.60;95.06;97041.38;1676567;85;20166;-73
2022/09/18 10:37:52;;;;;;;;;;;;;;;19.63;92.23;97048.12;1640876;85;21832;-73
2022/09/18 10:40:33;;;;;;;;;;;;;;;19.51;92.42;97042.47;1676358;85;20141;-73
2022/09/18 10:42:59;;;;;;;;;;;;;;;19.43;91.41;97047.27;1676684;85;20196;-72
2022/09/18 10:45:29;;;;;;;;;;;;;;;19.31;90.61;97043.43;1677141;85;20525;-73
2022/09/18 10:48:06;;;;;;;;;;;;;;;19.18;91.09;97044.00;1676319;85;20154;-72
2022/09/18 10:50:33;;;;;;;;;;;;;;;19.09;89.64;97043.75;1677284;85;21188;-72
2022/09/18 10:53:09;;;;;;;;;;;;;;;18.99;87.83;97039.20;1677031;85;20465;-72
2022/09/18 10:55:36;;;;;;;;;;;;;;;18.92;86.13;97043.55;1639448;85;20185;-72
2022/09/18 10:58:12;;;;;;;;;;;;;;;18.91;86.09;97049.31;1630438;85;20149;-72
2022/09/18 11:00:49;;;;;;;;;;;;;;;18.91;81.42;97036.64;1677503;85;20166;-72
2022/09/18 11:03:35;;;;;;;;;;;;;;;18.84;78.92;97035.69;1672675;85;22018;-72
2022/09/18 11:06:22;;;;;;;;;;;;;;;18.77;79.06;97039.53;1677474;85;20429;-72
2022/09/18 11:08:50;;;;;;;;;;;;;;;18.73;80.06;97025.56;1677354;85;20178;-71
2022/09/18 11:11:27;;;;;;;;;;;;;;;18.64;79.10;97037.13;1677466;85;20098;-71
2022/09/18 11:14:05;;;;;;;;;;;;;;;18.56;77.89;97018.23;1677381;85;20433;-72
2022/09/18 11:16:38;;;;;;;;;;;;;;;18.52;75.70;97030.09;1675271;85;21329;-72
2022/09/18 11:19:08;;;;;;;;;;;;;;;18.50;75.02;97039.97;1654234;85;20145;-73
2022/09/18 11:21:45;;;;;;;;;;;;;;;18.51;73.67;97039.80;1677356;85;20175;-72
2022/09/18 11:24:32;;;;;;;;;;;;;;;18.52;71.94;97042.76;1677169;85;20138;-72
2022/09/18 11:27:02;;;;;;;;;;;;;;;18.46;68.44;97049.20;1676582;84;20154;-72
2022/09/18 11:29:32;;;;;;;;;;;;;;;18.28;67.65;97048.62;1677245;85;21123;-73
2022/09/18 11:32:05;;;;;;;;;;;;;;;18.13;66.43;97046.70;1661797;84;20186;-72
2022/09/18 11:34:37;;;;;;;;;;;;;;;17.99;67.54;97061.03;1653953;86;20179;-72
2022/09/18 11:37:10;;;;;;;;;;;;;;;17.82;68.07;97045.78;1654218;87;20770;-72
2022/09/18 11:39:41;;;;;;;;;;;;;;;17.69;70.51;97055.52;1654279;87;20199;-73
2022/09/18 11:42:11;;;;;;;;;;;;;;;17.70;69.94;97049.77;1654221;86;21101;-73
2022/09/18 11:44:38;;;;;;;;;;;;;;;17.73;70.88;97059.95;1654235;87;20138;-73
2022/09/18 11:47:27;;;;;;;;;;;;;;;17.84;68.89;97071.42;1654252;87;20215;-72
2022/09/18 11:50:04;;;;;;;;;;;;;;;17.85;66.75;97078.33;1654323;86;20183;-73
2022/09/18 11:52:45;;;;;;;;;;;;;;;17.74;66.12;97076.88;1654299;87;20170;-72
2022/09/18 11:55:28;;;;;;;;;;;;;;;17.64;66.99;97074.89;1654226;86;21247;-72
2022/09/18 11:58:04;;;;;;;;;;;;;;;17.56;66.13;97089.34;1654405;87;20498;-72
2022/09/18 12:00:35;;;;;;;;;;;;;;;17.43;66.00;97095.56;1654295;86;20463;-73
2022/09/18 12:03:15;;;;;;;;;;;;;;;17.30;66.75;97097.37;1654590;87;20175;-72
2022/09/18 12:05:57;;;;;;;;;;;;;;;17.23;67.42;97097.69;1654321;86;20203;-72
2022/09/18 12:08:37;;;;;;;;;;;;;;;17.13;67.24;97097.86;1654522;87;21094;-73
2022/09/18 12:11:42;;;;;;;;;;;;;;;17.01;67.30;97080.75;1653996;86;20206;-72
2022/09/18 12:14:23;;;;;;;;;;;;;;;16.92;67.47;97090.92;1654172;87;20207;-72
2022/09/18 12:17:02;;;;;;;;;;;;;;;16.81;67.88;97089.89;1653298;86;20526;-72
2022/09/18 12:19:39;;;;;;;;;;;;;;;16.75;68.52;97083.50;1654223;87;20155;-72
2022/09/18 12:22:23;;;;;;;;;;;;;;;16.78;68.59;97079.25;1654590;87;21106;-72
2022/09/18 12:24:49;;;;;;;;;;;;;;;16.79;68.53;97072.17;1654149;87;20123;-72
2022/09/18 12:27:30;;;;;;;;;;;;;;;16.69;68.51;97075.44;1654146;86;20174;-72
2022/09/18 12:30:22;;;;;;;;;;;;;;;16.56;68.01;97067.17;1654080;86;20207;-71
2022/09/18 12:33:11;;;;;;;;;;;;;;;16.46;68.22;97068.11;1674101;85;20173;-72
2022/09/18 12:35:47;;;;;;;;;;;;;;;16.39;67.72;97055.28;1677199;85;21190;-72
2022/09/18 12:38:24;;;;;;;;;;;;;;;16.28;66.97;97055.59;1677116;85;20141;-72
2022/09/18 12:41:14;;;;;;;;;;;;;;;16.07;67.77;97062.53;1676962;85;20141;-72
2022/09/18 12:43:44;;;;;;;;;;;;;;;15.89;68.10;97059.65;1677142;85;20155;-71
2022/09/18 12:46:30;;;;;;;;;;;;;;;15.75;68.66;97059.74;1653631;85;20162;-72
2022/09/18 12:49:15;;;;;;;;;;;;;;;15.67;69.27;97062.30;1676981;85;21175;-72
2022/09/18 12:52:00;;;;;;;;;;;;;;;15.61;69.61;97070.27;1677127;85;20150;-71
2022/09/18 12:54:36;;;;;;;;;;;;;;;15.55;70.08;97064.33;1676821;85;20413;-71
2022/09/18 12:57:21;;;;;;;;;;;;;;;15.46;70.46;97057.37;1676771;85;20162;-71
2022/09/18 13:00:01;;;;;;;;;;;;;;;15.31;70.24;97059.72;1676789;85;20153;-72
2022/09/18 13:02:51;;;;;;;;;;;;;;;15.13;70.22;97049.75;1677432;85;21166;-72
2022/09/18 13:05:36;;;;;;;;;;;;;;;14.91;70.98;97066.72;1677125;85;20121;-72
2022/09/18 13:08:06;;;;;;;;;;;;;;;14.72;71.33;97060.31;1677090;85;20170;-72
2022/09/18 13:10:38;;;;;;;;;;;;;;;14.55;71.78;97064.55;1677109;85;20138;-72